createdAt,value
2022-11-01T00:02:46.921Z,963.06
2022-11-01T00:07:48.468Z,963.21
2022-11-01T00:12:49.948Z,963
2022-11-01T00:17:51.749Z,963.08
2022-11-01T00:22:53.367Z,963.08
2022-11-01T00:27:54.995Z,963.17
2022-11-01T00:32:56.762Z,963.25
2022-11-01T00:37:58.731Z,963.22
2022-11-01T00:43:00.582Z,963.09
2022-11-01T00:48:01.963Z,963.1
2022-11-01T00:53:03.247Z,963.02
2022-11-01T00:58:05.055Z,963.04
2022-11-01T01:03:06.631Z,963.02
2022-11-01T01:08:08.370Z,963.07
2022-11-01T01:13:10.560Z,963.01
2022-11-01T01:18:12.256Z,962.95
2022-11-01T01:23:13.748Z,962.97
2022-11-01T01:28:15.123Z,962.88
2022-11-01T01:33:16.473Z,962.91
2022-11-01T01:38:18.247Z,962.91
2022-11-01T01:43:19.459Z,962.88
2022-11-01T01:48:20.951Z,962.81
2022-11-01T01:53:22.867Z,962.76
2022-11-01T01:58:24.219Z,962.68
2022-11-01T02:03:25.768Z,962.76
2022-11-01T02:08:27.735Z,962.72
2022-11-01T02:13:29.649Z,962.72
2022-11-01T02:18:31.627Z,962.7
2022-11-01T02:23:32.893Z,962.81
2022-11-01T02:28:35.097Z,962.83
2022-11-01T02:33:36.429Z,962.94
2022-11-01T02:38:38.186Z,963.09
2022-11-01T02:43:39.590Z,963.03
2022-11-01T02:48:41.092Z,963.07
2022-11-01T02:53:42.687Z,963.03
2022-11-01T02:58:44.774Z,962.91
2022-11-01T03:03:46.201Z,962.97
2022-11-01T03:08:48.274Z,963.1
2022-11-01T03:13:49.618Z,963.11
2022-11-01T03:18:51.685Z,963.23
2022-11-01T03:23:53.441Z,963.15
2022-11-01T03:33:56.785Z,963.3
2022-11-01T03:38:58.002Z,963.23
2022-11-01T03:44:00.200Z,963.22
2022-11-01T03:49:01.936Z,963.32
2022-11-01T03:54:03.268Z,963.4
2022-11-01T03:59:04.967Z,963.46
2022-11-01T04:04:06.442Z,963.47
2022-11-01T04:09:07.701Z,963.51
2022-11-01T04:14:09.518Z,963.52
2022-11-01T04:19:10.929Z,963.64
2022-11-01T04:24:12.435Z,963.85
2022-11-01T04:29:14.285Z,963.76
2022-11-01T04:34:15.490Z,963.91
2022-11-01T04:39:17.039Z,963.94
2022-11-01T04:44:19.054Z,963.9
2022-11-01T04:49:20.347Z,963.9
2022-11-01T04:54:22.099Z,963.91
2022-11-01T04:59:23.830Z,963.95
2022-11-01T05:04:25.720Z,964.05
2022-11-01T05:09:27.621Z,964.06
2022-11-01T05:14:28.904Z,963.96
2022-11-01T05:19:30.614Z,964.07
2022-11-01T05:24:32.218Z,964.16
2022-11-01T05:29:34.124Z,964.16
2022-11-01T05:34:35.407Z,964.23
2022-11-01T05:39:37.046Z,964.31
2022-11-01T05:44:38.322Z,964.34
2022-11-01T05:49:40.489Z,964.45
2022-11-01T05:54:42.480Z,964.54
2022-11-01T05:59:44.088Z,964.6
2022-11-01T06:04:45.654Z,964.64
2022-11-01T06:09:47.257Z,964.65
2022-11-01T06:14:48.777Z,964.8
2022-11-01T06:19:50.399Z,965.01
2022-11-01T06:24:52.056Z,965.06
2022-11-01T06:29:54.130Z,965.24
2022-11-01T06:34:55.637Z,965.32
2022-11-01T06:39:56.797Z,965.41
2022-11-01T06:44:58.472Z,965.5
2022-11-01T06:49:59.922Z,965.6
2022-11-01T06:55:01.303Z,965.61
2022-11-01T07:00:02.831Z,965.67
2022-11-01T07:05:04.417Z,965.81
2022-11-01T07:10:06.376Z,965.82
2022-11-01T07:15:07.727Z,965.88
2022-11-01T07:20:09.281Z,965.95
2022-11-01T07:25:11.223Z,965.99
2022-11-01T07:30:12.548Z,966.09
2022-11-01T07:35:14.236Z,966.14
2022-11-01T07:40:15.988Z,966.2
2022-11-01T07:45:18.086Z,966.21
2022-11-01T07:50:19.765Z,966.21
2022-11-01T07:55:21.511Z,966.21
2022-11-01T08:00:22.977Z,966.21
2022-11-01T08:05:24.899Z,966.22
2022-11-01T08:10:27.019Z,966.24
2022-11-01T08:15:29.034Z,966.19
2022-11-01T08:20:30.636Z,966.17
2022-11-01T08:25:32.351Z,966.17
2022-11-01T08:30:33.944Z,966.17
2022-11-01T08:35:35.941Z,966.2
2022-11-01T08:40:37.591Z,966.27
2022-11-01T08:45:39.239Z,966.3
2022-11-01T08:50:40.693Z,966.28
2022-11-01T08:55:42.273Z,966.27
2022-11-01T09:00:44.273Z,966.26
2022-11-01T09:05:45.594Z,966.28
2022-11-01T09:10:47.227Z,966.33
2022-11-01T09:15:49.265Z,966.38
2022-11-01T09:20:51.204Z,966.41
2022-11-01T09:25:53.240Z,966.35
2022-11-01T09:31:01.208Z,966.28
2022-11-01T09:35:59.502Z,966.3
2022-11-01T09:40:58.335Z,966.31
2022-11-01T09:46:00.387Z,966.3
2022-11-01T09:51:01.683Z,966.19
2022-11-01T09:56:03.166Z,966.15
2022-11-01T10:01:04.769Z,966.1
2022-11-01T10:06:06.762Z,966.09
2022-11-01T10:11:08.534Z,966.12
2022-11-01T10:16:09.948Z,966.18
2022-11-01T10:21:11.741Z,966.42
2022-11-01T10:26:12.979Z,966.46
2022-11-01T10:31:14.899Z,966.52
2022-11-01T10:36:16.668Z,966.55
2022-11-01T10:41:18.541Z,966.54
2022-11-01T11:11:35.316Z,966.34
2022-11-01T11:16:37.284Z,966.34
2022-11-01T11:21:38.568Z,966.37
2022-11-01T11:31:42.169Z,966.32
2022-11-01T11:46:47.696Z,966.17
2022-11-01T11:51:48.956Z,966.16
2022-11-01T11:56:50.870Z,966.16
2022-11-01T12:01:52.876Z,966.2
2022-11-01T12:06:54.479Z,966.26
2022-11-01T12:11:56.612Z,966.27
2022-11-01T12:16:57.831Z,966.25
2022-11-01T12:21:59.556Z,966.28
2022-11-01T12:27:01.112Z,966.31
2022-11-01T12:32:02.479Z,966.28
2022-11-01T12:37:20.938Z,966.3
2022-11-01T12:42:05.873Z,966.34
2022-11-01T12:47:07.926Z,966.35
2022-11-01T12:52:09.312Z,966.42
2022-11-01T12:57:10.655Z,966.36
2022-11-01T13:02:12.181Z,966.33
2022-11-01T13:07:13.948Z,966.31
2022-11-01T13:12:15.555Z,966.26
2022-11-01T13:22:18.886Z,966.31
2022-11-01T13:27:20.908Z,966.29
2022-11-01T13:32:22.763Z,966.3
2022-11-01T13:37:24.169Z,966.4
2022-11-01T13:42:25.720Z,966.38
2022-11-01T13:47:27.621Z,966.42
2022-11-01T13:52:29.017Z,966.44
2022-11-01T13:57:31.018Z,966.46
2022-11-01T14:02:32.968Z,966.46
2022-11-01T14:07:33.998Z,966.47
2022-11-01T14:12:36.087Z,966.5
2022-11-01T14:17:37.847Z,966.47
2022-11-01T14:22:39.365Z,966.43
2022-11-01T14:27:41.261Z,966.41
2022-11-01T14:32:42.971Z,966.39
2022-11-01T14:37:44.912Z,966.36
2022-11-01T14:42:46.860Z,966.43
2022-11-01T14:47:48.716Z,966.41
2022-11-01T14:52:50.287Z,966.45
2022-11-01T14:57:52.017Z,966.5
2022-11-01T15:02:53.888Z,966.49
2022-11-01T15:07:55.105Z,966.52
2022-11-01T15:12:56.755Z,966.52
2022-11-01T15:17:58.282Z,966.58
2022-11-01T15:23:00.190Z,966.61
2022-11-01T15:28:01.195Z,966.67
2022-11-01T15:33:03.674Z,966.73
2022-11-01T15:38:04.736Z,966.75
2022-11-01T15:43:06.697Z,966.74
2022-11-01T15:48:08.069Z,966.73
2022-11-01T15:53:10.776Z,966.77
2022-11-01T15:58:11.460Z,966.81
2022-11-01T16:03:12.964Z,966.79
2022-11-01T16:08:14.946Z,966.91
2022-11-01T16:13:16.483Z,966.89
2022-11-01T16:18:18.621Z,966.9
2022-11-01T16:23:20.335Z,966.93
2022-11-01T16:28:22.348Z,967.07
2022-11-01T16:33:24.266Z,967.15
2022-11-01T16:38:26.161Z,967.15
2022-11-01T16:43:27.298Z,967.23
2022-11-01T16:48:29.239Z,967.26
2022-11-01T16:53:30.616Z,967.34
2022-11-01T16:58:32.159Z,967.44
2022-11-01T17:03:33.769Z,967.52
2022-11-01T17:08:35.742Z,967.58
2022-11-01T17:13:37.649Z,967.54
2022-11-01T17:18:39.497Z,967.56
2022-11-01T17:23:40.942Z,967.64
2022-11-01T17:28:44.603Z,967.66
2022-11-01T17:33:44.418Z,967.74
2022-11-01T17:38:45.682Z,967.74
2022-11-01T17:43:47.135Z,967.71
2022-11-01T17:48:48.629Z,967.77
2022-11-01T17:53:50.443Z,967.73
2022-11-01T17:58:52.457Z,967.76
2022-11-01T18:03:54.252Z,967.82
2022-11-01T18:08:56.003Z,967.79
2022-11-01T18:14:02.637Z,967.75
2022-11-01T18:19:00.090Z,967.71
2022-11-01T18:24:02.022Z,967.92
2022-11-01T18:29:03.095Z,967.91
2022-11-01T18:34:04.390Z,967.92
2022-11-01T18:39:06.378Z,967.93
2022-11-01T18:44:08.445Z,967.92
2022-11-01T18:49:10.226Z,967.94
2022-11-01T18:54:11.619Z,967.93
2022-11-01T18:59:13.354Z,967.98
2022-11-01T19:04:14.771Z,967.93
2022-11-01T19:09:16.089Z,967.97
2022-11-01T19:14:17.437Z,967.94
2022-11-01T19:19:18.829Z,967.94
2022-11-01T19:24:20.297Z,967.92
2022-11-01T19:29:21.798Z,967.88
2022-11-01T19:34:23.669Z,967.88
2022-11-01T19:39:25.608Z,967.77
2022-11-01T19:44:26.854Z,967.75
2022-11-01T19:49:28.852Z,967.77
2022-11-01T19:54:30.930Z,967.87
2022-11-01T19:59:32.765Z,967.94
2022-11-01T20:04:34.509Z,967.94
2022-11-01T20:09:36.430Z,967.94
2022-11-01T20:14:38.522Z,968.01
2022-11-01T20:19:40.006Z,968.21
2022-11-01T20:24:42.061Z,968.21
2022-11-01T20:29:44.159Z,968.21
2022-11-01T20:34:45.463Z,968.27
2022-11-01T20:39:47.597Z,968.25
2022-11-01T20:44:49.327Z,968.28
2022-11-01T20:49:50.951Z,968.29
2022-11-01T20:54:52.435Z,968.35
2022-11-01T20:59:53.590Z,968.35
2022-11-01T21:04:55.294Z,968.35
2022-11-01T21:09:56.951Z,968.37
2022-11-01T21:14:58.525Z,968.33
2022-11-01T21:20:00.538Z,968.32
2022-11-01T21:25:02.596Z,968.39
2022-11-01T21:30:03.713Z,968.41
2022-11-01T21:35:05.675Z,968.39
2022-11-01T21:40:09.726Z,968.38
2022-11-01T21:45:09.123Z,968.33
2022-11-01T21:50:10.699Z,968.31
2022-11-01T21:55:11.955Z,968.38
2022-11-01T22:00:13.796Z,968.28
2022-11-01T22:05:15.453Z,968.25
2022-11-01T22:10:17.023Z,968.21
2022-11-01T22:15:18.478Z,968.25
2022-11-01T22:20:20.440Z,968.22
2022-11-01T22:25:22.541Z,968.19
2022-11-01T22:30:23.782Z,968.18
2022-11-01T22:35:24.895Z,968.17
2022-11-01T22:40:26.460Z,968.21
2022-11-01T22:45:27.806Z,968.22
2022-11-01T22:50:28.946Z,968.28
2022-11-01T22:55:30.680Z,968.23
2022-11-01T23:15:38.285Z,968.33
2022-11-01T23:20:39.545Z,968.34
2022-11-01T23:25:41.279Z,968.35
2022-11-01T23:30:43.149Z,968.33
2022-11-01T23:35:45.181Z,968.37
2022-11-01T23:40:46.416Z,968.42
2022-11-01T23:45:48.186Z,968.45
2022-11-01T23:50:50.106Z,968.46
2022-11-01T23:55:51.593Z,968.52
